createdAt,value
2018-05-17T00:01:44.787Z,13.00
2018-05-17T00:04:12.382Z,13.00
2018-05-17T00:06:40.755Z,12.90
2018-05-17T00:09:09.123Z,12.90
2018-05-17T00:11:36.740Z,12.90
2018-05-17T00:14:04.318Z,12.80
2018-05-17T00:16:31.943Z,12.70
2018-05-17T00:18:59.565Z,12.70
2018-05-17T00:21:27.945Z,12.70
2018-05-17T00:23:55.573Z,12.70
2018-05-17T00:26:23.199Z,12.70
2018-05-17T00:28:50.833Z,12.70
2018-05-17T00:31:19.181Z,12.70
2018-05-17T00:33:46.797Z,12.70
2018-05-17T00:36:14.431Z,12.60
2018-05-17T00:38:42.849Z,12.60
2018-05-17T00:41:15.597Z,12.60
2018-05-17T00:43:44.003Z,12.70
2018-05-17T00:46:11.625Z,12.70
2018-05-17T00:48:40.064Z,12.70
2018-05-17T00:51:07.687Z,12.70
2018-05-17T00:53:36.051Z,12.70
2018-05-17T00:56:04.435Z,12.60
2018-05-17T00:58:32.773Z,12.70
2018-05-17T01:01:00.409Z,12.70
2018-05-17T01:03:28.011Z,12.70
2018-05-17T01:05:55.611Z,12.70
2018-05-17T01:08:23.233Z,12.70
2018-05-17T01:10:50.830Z,12.60
2018-05-17T01:13:18.475Z,12.60
2018-05-17T01:15:46.847Z,12.60
2018-05-17T01:18:14.457Z,12.60
2018-05-17T01:20:42.075Z,12.70
2018-05-17T01:23:10.457Z,12.60
2018-05-17T01:25:38.845Z,12.70
2018-05-17T01:28:07.189Z,12.60
2018-05-17T01:30:34.775Z,12.60
2018-05-17T01:33:03.153Z,12.60
2018-05-17T01:35:31.537Z,12.60
2018-05-17T01:38:11.741Z,12.70
2018-05-17T01:40:39.353Z,12.70
2018-05-17T01:43:07.741Z,12.70
2018-05-17T01:45:35.367Z,12.70
2018-05-17T01:48:03.015Z,12.70
2018-05-17T01:50:30.635Z,12.70
2018-05-17T01:52:58.237Z,12.70
2018-05-17T01:55:25.886Z,12.70
2018-05-17T01:57:53.502Z,12.70
2018-05-17T02:00:21.915Z,12.80
2018-05-17T02:02:49.483Z,12.70
2018-05-17T02:05:17.117Z,12.80
2018-05-17T02:07:44.750Z,12.80
2018-05-17T02:10:12.388Z,12.70
2018-05-17T02:12:40.024Z,12.70
2018-05-17T02:15:07.643Z,12.70
2018-05-17T02:17:36.024Z,12.70
2018-05-17T02:20:04.389Z,12.70
2018-05-17T02:22:33.495Z,12.70
2018-05-17T02:25:01.114Z,12.70
2018-05-17T02:27:28.729Z,12.70
2018-05-17T02:29:57.112Z,12.80
2018-05-17T02:32:24.745Z,12.80
2018-05-17T02:34:52.351Z,12.80
2018-05-17T02:37:19.970Z,12.80
2018-05-17T02:39:48.354Z,12.80
2018-05-17T02:42:16.722Z,12.80
2018-05-17T02:44:44.384Z,12.80
2018-05-17T02:47:11.989Z,12.80
2018-05-17T02:49:39.604Z,12.90
2018-05-17T02:52:07.242Z,12.80
2018-05-17T02:54:34.889Z,12.90
2018-05-17T02:57:02.505Z,12.90
2018-05-17T02:59:30.890Z,13.00
2018-05-17T03:01:59.276Z,13.00
2018-05-17T03:04:26.971Z,13.00
2018-05-17T03:06:55.294Z,13.00
2018-05-17T03:09:23.715Z,13.00
2018-05-17T03:11:51.285Z,13.00
2018-05-17T03:14:18.900Z,13.10
2018-05-17T03:16:47.291Z,13.10
2018-05-17T03:19:14.923Z,13.10
2018-05-17T03:21:42.527Z,13.10
2018-05-17T03:24:10.161Z,13.20
2018-05-17T03:26:38.540Z,13.10
2018-05-17T03:29:06.153Z,13.10
2018-05-17T03:31:33.780Z,13.10
2018-05-17T03:34:01.412Z,13.10
2018-05-17T03:36:29.059Z,13.10
2018-05-17T03:38:56.678Z,13.10
2018-05-17T03:41:24.298Z,13.10
2018-05-17T03:43:52.698Z,13.10
2018-05-17T03:46:21.108Z,13.20
2018-05-17T03:48:48.724Z,13.10
2018-05-17T03:51:17.068Z,13.20
2018-05-17T03:53:44.704Z,13.10
2018-05-17T03:56:12.339Z,13.10
2018-05-17T03:58:40.738Z,13.20
2018-05-17T04:01:20.255Z,13.20
2018-05-17T04:06:55.429Z,13.20
2018-05-17T04:09:22.939Z,13.20
2018-05-17T04:12:09.958Z,13.20
2018-05-17T04:14:37.504Z,13.20
2018-05-17T04:17:05.099Z,13.30
2018-05-17T04:19:33.572Z,13.30
2018-05-17T04:22:01.326Z,13.30
2018-05-17T04:24:28.906Z,13.30
2018-05-17T04:26:57.290Z,13.30
2018-05-17T04:29:25.643Z,13.30
2018-05-17T04:31:53.278Z,13.30
2018-05-17T04:34:20.896Z,13.30
2018-05-17T04:36:49.287Z,13.40
2018-05-17T04:39:16.892Z,13.30
2018-05-17T04:42:09.914Z,13.40
2018-05-17T04:44:37.550Z,13.40
2018-05-17T04:47:05.178Z,13.40
2018-05-17T04:49:32.790Z,13.40
2018-05-17T04:52:15.934Z,13.40
2018-05-17T04:54:43.621Z,13.50
2018-05-17T04:57:11.924Z,13.50
2018-05-17T04:59:40.308Z,13.60
2018-05-17T05:02:08.651Z,13.60
2018-05-17T05:04:36.291Z,13.60
2018-05-17T05:07:03.886Z,13.60
2018-05-17T05:09:31.555Z,13.70
2018-05-17T05:11:59.150Z,13.70
2018-05-17T05:14:26.747Z,13.70
2018-05-17T05:17:15.358Z,13.70
2018-05-17T05:19:42.982Z,13.80
2018-05-17T05:22:10.580Z,13.80
2018-05-17T05:24:39.082Z,14.00
2018-05-17T05:27:06.773Z,14.00
2018-05-17T05:29:34.340Z,14.10
2018-05-17T05:32:01.980Z,14.10
2018-05-17T05:34:29.590Z,14.20
2018-05-17T05:36:58.024Z,14.30
2018-05-17T05:39:25.840Z,14.30
2018-05-17T05:41:53.500Z,14.30
2018-05-17T05:44:28.587Z,14.50
2018-05-17T05:46:56.198Z,14.50
2018-05-17T05:49:24.646Z,14.70
2018-05-17T05:51:52.216Z,14.70
2018-05-17T05:54:19.840Z,14.80
2018-05-17T05:56:47.465Z,14.90
2018-05-17T05:59:15.824Z,14.90
2018-05-17T06:01:43.400Z,14.80
2018-05-17T06:04:11.834Z,14.70
2018-05-17T06:06:39.486Z,14.70
2018-05-17T06:09:11.288Z,14.70
2018-05-17T06:11:39.696Z,14.60
2018-05-17T06:14:07.298Z,14.60
2018-05-17T06:16:34.996Z,14.60
2018-05-17T06:19:03.381Z,14.70
2018-05-17T06:21:42.966Z,14.90
2018-05-17T06:24:15.281Z,14.90
2018-05-17T06:26:44.429Z,15.30
2018-05-17T06:29:12.052Z,15.30
2018-05-17T06:31:39.873Z,15.60
2018-05-17T06:34:07.522Z,15.80
2018-05-17T06:36:46.344Z,15.90
2018-05-17T06:39:13.971Z,16.00
2018-05-17T06:41:42.360Z,16.10
2018-05-17T06:44:10.005Z,16.00
2018-05-17T06:46:38.412Z,15.70
2018-05-17T06:49:06.023Z,15.70
2018-05-17T06:51:37.176Z,15.60
2018-05-17T06:54:04.824Z,15.60
2018-05-17T06:56:32.396Z,15.60
2018-05-17T06:59:00.778Z,15.50
2018-05-17T07:01:28.418Z,15.50
2018-05-17T07:03:56.073Z,15.60
2018-05-17T07:06:23.730Z,15.60
2018-05-17T07:08:51.313Z,15.50
2018-05-17T07:11:18.886Z,15.50
2018-05-17T07:13:46.512Z,15.40
2018-05-17T07:16:14.155Z,15.30
2018-05-17T07:18:42.188Z,15.20
2018-05-17T07:21:09.412Z,15.20
2018-05-17T07:23:37.016Z,15.20
2018-05-17T07:26:04.815Z,15.20
2018-05-17T07:28:32.440Z,15.20
2018-05-17T07:31:00.076Z,15.30
2018-05-17T07:33:27.688Z,15.20
2018-05-17T07:35:55.325Z,15.30
2018-05-17T07:38:23.232Z,15.30
2018-05-17T07:40:50.847Z,15.20
2018-05-17T07:43:18.465Z,15.20
2018-05-17T07:46:09.372Z,15.20
2018-05-17T07:48:36.970Z,15.20
2018-05-17T07:51:05.341Z,15.20
2018-05-17T07:53:33.727Z,15.20
2018-05-17T07:56:02.154Z,15.20
2018-05-17T07:58:33.438Z,15.20
2018-05-17T08:01:01.029Z,15.20
2018-05-17T08:03:28.631Z,15.20
2018-05-17T08:05:56.253Z,15.20
2018-05-17T08:08:23.797Z,15.10
2018-05-17T08:10:52.165Z,15.00
2018-05-17T08:13:20.528Z,14.80
2018-05-17T08:15:48.113Z,14.80
2018-05-17T08:18:16.480Z,14.90
2018-05-17T08:20:44.082Z,14.90
2018-05-17T08:23:11.705Z,15.00
2018-05-17T08:25:40.077Z,15.30
2018-05-17T08:28:07.706Z,15.30
2018-05-17T08:30:35.333Z,15.30
2018-05-17T08:33:02.957Z,15.40
2018-05-17T08:35:30.548Z,15.50
2018-05-17T08:37:58.137Z,15.50
2018-05-17T08:40:25.729Z,15.60
2018-05-17T08:42:53.343Z,15.80
2018-05-17T08:45:20.972Z,16.00
2018-05-17T08:47:49.361Z,16.00
2018-05-17T08:50:17.701Z,15.90
2018-05-17T08:52:45.341Z,15.80
2018-05-17T08:55:12.959Z,15.80
2018-05-17T08:57:41.308Z,15.80
2018-05-17T09:00:08.937Z,15.70
2018-05-17T09:02:36.547Z,15.90
2018-05-17T09:05:04.183Z,16.00
2018-05-17T09:07:31.809Z,16.10
2018-05-17T09:09:59.425Z,16.10
2018-05-17T09:12:27.077Z,16.20
2018-05-17T09:14:54.724Z,16.30
2018-05-17T09:17:22.331Z,16.40
2018-05-17T09:19:50.700Z,16.40
2018-05-17T09:22:19.093Z,16.50
2018-05-17T09:24:46.728Z,16.50
2018-05-17T09:27:14.337Z,16.60
2018-05-17T09:29:41.957Z,16.60
2018-05-17T09:32:09.607Z,16.80
2018-05-17T09:34:37.177Z,17.10
2018-05-17T09:37:04.809Z,17.30
2018-05-17T09:39:32.364Z,17.50
2018-05-17T09:41:59.950Z,17.60
2018-05-17T09:44:27.555Z,17.50
2018-05-17T09:46:55.257Z,17.10
2018-05-17T09:49:22.897Z,17.40
2018-05-17T09:51:50.542Z,17.70
2018-05-17T09:54:18.180Z,17.80
2018-05-17T09:56:45.832Z,17.80
2018-05-17T09:59:14.197Z,17.50
2018-05-17T10:01:41.822Z,17.50
2018-05-17T10:04:10.398Z,17.30
2018-05-17T10:06:38.049Z,17.20
2018-05-17T10:09:05.680Z,17.10
2018-05-17T10:11:34.052Z,17.00
2018-05-17T10:14:05.573Z,17.00
2018-05-17T10:16:33.180Z,17.10
2018-05-17T10:19:00.756Z,17.20
2018-05-17T10:21:28.365Z,17.20
2018-05-17T10:23:55.941Z,17.10
2018-05-17T10:26:23.564Z,17.10
2018-05-17T10:28:51.208Z,17.30
2018-05-17T10:31:18.892Z,17.40
2018-05-17T10:33:46.542Z,17.20
2018-05-17T10:36:14.160Z,17.30
2018-05-17T10:38:42.534Z,17.20
2018-05-17T10:41:10.917Z,17.20
2018-05-17T10:43:39.285Z,16.90
2018-05-17T10:46:06.912Z,16.90
2018-05-17T10:48:34.581Z,16.70
2018-05-17T10:51:02.173Z,16.50
2018-05-17T10:53:30.520Z,16.30
2018-05-17T10:55:58.128Z,16.30
2018-05-17T10:58:26.463Z,16.40
2018-05-17T11:00:54.064Z,16.40
2018-05-17T11:03:22.471Z,16.60
2018-05-17T11:05:50.076Z,16.60
2018-05-17T11:08:19.202Z,16.60
2018-05-17T11:10:46.814Z,16.60
2018-05-17T11:13:14.411Z,16.60
2018-05-17T11:15:42.745Z,16.90
2018-05-17T11:18:10.344Z,16.90
2018-05-17T11:20:38.740Z,17.80
2018-05-17T11:23:06.361Z,17.70
2018-05-17T11:25:33.961Z,18.20
2018-05-17T11:28:01.591Z,18.50
2018-05-17T11:30:29.186Z,18.80
2018-05-17T11:32:57.590Z,18.40
2018-05-17T11:35:25.194Z,18.40
2018-05-17T11:37:52.823Z,18.10
2018-05-17T11:40:20.445Z,18.00
2018-05-17T11:42:48.064Z,18.00
2018-05-17T11:45:18.258Z,18.20
2018-05-17T11:47:45.833Z,18.60
2018-05-17T11:50:13.455Z,18.80
2018-05-17T11:52:41.041Z,19.10
2018-05-17T11:55:08.687Z,19.50
2018-05-17T11:57:36.226Z,20.40
2018-05-17T12:00:04.626Z,21.40
2018-05-17T12:02:32.302Z,21.40
2018-05-17T12:04:59.878Z,21.50
2018-05-17T12:07:27.541Z,21.60
2018-05-17T12:09:55.140Z,21.50
2018-05-17T12:12:22.804Z,21.10
2018-05-17T12:14:51.175Z,19.90
2018-05-17T12:17:18.807Z,19.80
2018-05-17T12:19:46.399Z,19.40
2018-05-17T12:22:13.985Z,19.10
2018-05-17T12:24:41.565Z,19.10
2018-05-17T12:27:09.195Z,18.90
2018-05-17T12:29:37.583Z,18.80
2018-05-17T12:32:05.205Z,18.80
2018-05-17T12:34:32.823Z,18.90
2018-05-17T12:37:00.485Z,19.10
2018-05-17T12:39:28.084Z,19.00
2018-05-17T12:41:55.714Z,19.00
2018-05-17T12:44:23.366Z,19.20
2018-05-17T12:46:50.994Z,19.30
2018-05-17T12:49:19.368Z,19.10
2018-05-17T12:51:46.936Z,19.10
2018-05-17T12:54:16.038Z,19.40
2018-05-17T12:56:43.757Z,19.40
2018-05-17T12:59:11.306Z,19.80
2018-05-17T13:01:38.905Z,20.00
2018-05-17T13:04:07.286Z,20.00
2018-05-17T13:06:34.909Z,20.00
2018-05-17T13:09:02.546Z,19.90
2018-05-17T13:11:30.170Z,19.70
2018-05-17T13:13:57.786Z,19.50
2018-05-17T13:16:25.412Z,19.20
2018-05-17T13:18:52.990Z,19.30
2018-05-17T13:21:20.575Z,19.40
2018-05-17T13:23:48.161Z,19.30
2018-05-17T13:26:16.494Z,19.10
2018-05-17T13:28:44.119Z,19.10
2018-05-17T13:31:12.488Z,18.90
2018-05-17T13:33:40.080Z,18.90
2018-05-17T13:36:07.655Z,18.80
2018-05-17T13:38:35.482Z,18.70
2018-05-17T13:41:03.845Z,18.70
2018-05-17T13:43:31.451Z,18.70
2018-05-17T13:45:59.037Z,18.80
2018-05-17T13:48:27.565Z,19.10
2018-05-17T13:50:55.950Z,19.50
2018-05-17T13:53:24.378Z,19.40
2018-05-17T13:55:52.005Z,19.40
2018-05-17T13:58:19.639Z,19.50
2018-05-17T14:00:48.040Z,19.60
2018-05-17T14:03:15.586Z,19.60
2018-05-17T14:05:43.979Z,19.70
2018-05-17T14:08:12.286Z,19.90
2018-05-17T14:10:39.912Z,19.90
2018-05-17T14:13:07.521Z,20.00
2018-05-17T14:15:35.228Z,20.30
2018-05-17T14:18:02.759Z,20.30
2018-05-17T14:20:30.384Z,20.40
2018-05-17T14:22:58.019Z,20.40
2018-05-17T14:25:26.393Z,20.60
2018-05-17T14:27:54.808Z,20.60
2018-05-17T14:30:22.437Z,20.60
2018-05-17T14:32:50.066Z,20.70
2018-05-17T14:35:17.711Z,20.80
2018-05-17T14:37:50.969Z,20.70
2018-05-17T14:40:18.604Z,20.60
2018-05-17T14:42:46.987Z,20.40
2018-05-17T14:45:15.364Z,20.40
2018-05-17T14:47:42.996Z,20.40
2018-05-17T14:50:10.566Z,20.30
2018-05-17T14:52:38.173Z,20.40
2018-05-17T14:55:05.827Z,20.30
2018-05-17T14:57:33.486Z,20.10
2018-05-17T15:00:01.107Z,20.10
2018-05-17T15:02:28.734Z,20.30
2018-05-17T15:04:56.376Z,20.50
2018-05-17T15:07:23.949Z,20.70
2018-05-17T15:09:51.568Z,20.70
2018-05-17T15:12:19.207Z,20.70
2018-05-17T15:14:46.826Z,20.70
2018-05-17T15:17:14.431Z,20.70
2018-05-17T15:19:42.042Z,20.60
2018-05-17T15:22:10.181Z,20.60
2018-05-17T15:24:38.578Z,20.70
2018-05-17T15:27:06.237Z,20.70
2018-05-17T15:29:34.684Z,20.70
2018-05-17T15:32:02.296Z,20.70
2018-05-17T15:34:30.103Z,20.60
2018-05-17T15:36:57.701Z,20.50
2018-05-17T15:39:26.075Z,20.40
2018-05-17T15:41:54.449Z,20.40
2018-05-17T15:44:22.067Z,20.40
2018-05-17T15:46:49.697Z,20.40
2018-05-17T15:49:17.271Z,20.40
2018-05-17T15:51:44.869Z,20.20
2018-05-17T15:54:12.472Z,20.30
2018-05-17T15:56:40.084Z,20.10
2018-05-17T15:59:11.855Z,20.10
2018-05-17T16:01:39.673Z,20.10
2018-05-17T16:04:07.285Z,20.10
2018-05-17T16:06:35.038Z,19.90
2018-05-17T16:09:02.585Z,19.80
2018-05-17T16:11:30.238Z,19.80
2018-05-17T16:13:57.875Z,19.70
2018-05-17T16:16:42.645Z,19.70
2018-05-17T16:19:10.263Z,19.70
2018-05-17T16:21:37.879Z,19.70
2018-05-17T16:24:05.509Z,19.60
2018-05-17T16:26:33.122Z,19.60
2018-05-17T16:29:00.779Z,19.70
2018-05-17T16:31:37.030Z,19.80
2018-05-17T16:34:04.650Z,19.80
2018-05-17T16:36:33.034Z,19.60
2018-05-17T16:39:00.580Z,19.60
2018-05-17T16:41:28.095Z,19.50
2018-05-17T16:43:55.604Z,19.50
2018-05-17T16:46:24.158Z,19.30
2018-05-17T16:48:51.734Z,19.30
2018-05-17T16:51:19.276Z,19.20
2018-05-17T16:53:46.810Z,19.10
2018-05-17T16:56:14.596Z,19.10
2018-05-17T16:58:42.225Z,19.10
2018-05-17T17:01:09.808Z,19.10
2018-05-17T17:03:38.232Z,19.10
2018-05-17T17:06:06.048Z,19.00
2018-05-17T17:08:33.665Z,19.00
2018-05-17T17:11:01.244Z,19.10
2018-05-17T17:13:28.864Z,19.10
2018-05-17T17:15:57.218Z,18.90
2018-05-17T17:18:24.833Z,18.90
2018-05-17T17:20:52.424Z,19.00
2018-05-17T17:23:20.060Z,18.90
2018-05-17T17:25:47.640Z,18.80
2018-05-17T17:28:15.289Z,18.80
2018-05-17T17:30:42.971Z,18.70
2018-05-17T17:33:10.587Z,18.70
2018-05-17T17:35:39.000Z,18.60
2018-05-17T17:38:06.580Z,18.60
2018-05-17T17:40:39.937Z,18.60
2018-05-17T17:43:07.501Z,18.60
2018-05-17T17:45:35.090Z,18.40
2018-05-17T17:48:02.711Z,18.40
2018-05-17T17:50:30.274Z,18.40
2018-05-17T17:52:57.900Z,18.30
2018-05-17T17:55:25.524Z,18.20
2018-05-17T17:57:53.120Z,18.20
2018-05-17T18:00:20.730Z,18.10
2018-05-17T18:02:48.368Z,18.00
2018-05-17T18:05:17.465Z,17.80
2018-05-17T18:07:45.016Z,17.80
2018-05-17T18:10:13.375Z,17.60
2018-05-17T18:12:41.029Z,17.60
2018-05-17T18:15:08.608Z,17.50
2018-05-17T18:17:36.957Z,17.30
2018-05-17T18:20:04.536Z,17.30
2018-05-17T18:22:32.143Z,17.20
2018-05-17T18:24:59.845Z,17.10
2018-05-17T18:27:27.487Z,17.00
2018-05-17T18:29:55.146Z,16.90
2018-05-17T18:32:22.765Z,16.80
2018-05-17T18:34:50.359Z,16.70
2018-05-17T18:37:17.983Z,16.60
2018-05-17T18:39:46.410Z,16.40
2018-05-17T18:42:20.868Z,16.40
2018-05-17T18:44:48.527Z,16.30
2018-05-17T18:47:22.022Z,16.20
2018-05-17T18:49:49.956Z,16.20
2018-05-17T18:52:17.583Z,16.10
2018-05-17T18:54:46.006Z,16.00
2018-05-17T18:57:13.609Z,16.00
2018-05-17T18:59:42.006Z,15.80
2018-05-17T19:02:09.607Z,15.80
2018-05-17T19:04:37.276Z,15.80
2018-05-17T19:07:04.970Z,15.80
2018-05-17T19:09:32.577Z,15.70
2018-05-17T19:12:00.171Z,15.70
2018-05-17T19:14:27.779Z,15.60
2018-05-17T19:16:55.432Z,15.60
2018-05-17T19:19:23.834Z,15.50
2018-05-17T19:21:51.625Z,15.40
2018-05-17T19:24:19.390Z,15.40
2018-05-17T19:26:47.073Z,15.40
2018-05-17T19:29:14.804Z,15.30
2018-05-17T19:31:42.519Z,15.20
2018-05-17T19:34:11.078Z,15.20
2018-05-17T19:36:38.736Z,15.10
2018-05-17T19:39:06.390Z,15.10
2018-05-17T19:41:33.992Z,15.10
2018-05-17T19:44:02.380Z,14.90
2018-05-17T19:46:31.160Z,14.90
2018-05-17T19:48:59.564Z,14.70
2018-05-17T19:51:27.216Z,14.70
2018-05-17T19:53:54.877Z,14.60
2018-05-17T19:56:41.948Z,14.60
2018-05-17T19:59:09.563Z,14.50
2018-05-17T20:01:37.135Z,14.40
2018-05-17T20:04:04.756Z,14.40
2018-05-17T20:06:33.149Z,14.40
2018-05-17T20:09:25.615Z,14.40
2018-05-17T20:11:53.224Z,14.40
2018-05-17T20:14:21.586Z,14.30
2018-05-17T20:16:49.224Z,14.30
2018-05-17T20:19:16.841Z,14.30
2018-05-17T20:21:45.248Z,14.20
2018-05-17T20:24:12.820Z,14.20
2018-05-17T20:26:40.427Z,14.10
2018-05-17T20:29:08.113Z,14.00
2018-05-17T20:31:35.672Z,13.90
2018-05-17T20:34:03.307Z,13.90
2018-05-17T20:36:30.925Z,13.90
2018-05-17T20:38:58.517Z,13.80
2018-05-17T20:41:26.160Z,13.80
2018-05-17T20:43:53.784Z,13.70
2018-05-17T20:46:21.467Z,13.70
2018-05-17T20:48:49.088Z,13.60
2018-05-17T20:51:16.693Z,13.60
2018-05-17T20:53:44.342Z,13.60
2018-05-17T20:56:17.642Z,13.50
2018-05-17T20:58:45.232Z,13.50
2018-05-17T21:01:12.806Z,13.40
2018-05-17T21:03:40.410Z,13.40
2018-05-17T21:06:08.764Z,13.30
2018-05-17T21:08:37.176Z,13.30
2018-05-17T21:11:04.824Z,13.30
2018-05-17T21:13:32.436Z,13.30
2018-05-17T21:16:00.058Z,13.30
2018-05-17T21:18:27.694Z,13.20
2018-05-17T21:20:56.451Z,13.20
2018-05-17T21:23:24.064Z,13.20
2018-05-17T21:25:51.659Z,13.10
2018-05-17T21:28:25.692Z,13.10
2018-05-17T21:30:53.281Z,13.00
2018-05-17T21:33:21.650Z,13.00
2018-05-17T21:35:50.042Z,12.90
2018-05-17T21:38:18.454Z,12.90
2018-05-17T21:40:46.090Z,12.90
2018-05-17T21:43:13.736Z,12.90
2018-05-17T21:45:42.103Z,12.80
2018-05-17T21:48:09.676Z,12.80
2018-05-17T21:50:38.100Z,12.80
2018-05-17T21:53:05.717Z,12.80
2018-05-17T21:55:34.174Z,12.80
2018-05-17T21:58:01.766Z,12.80
2018-05-17T22:00:29.409Z,12.70
2018-05-17T22:02:57.751Z,12.60
2018-05-17T22:05:25.374Z,12.60
2018-05-17T22:07:52.950Z,12.60
2018-05-17T22:10:22.568Z,12.60
2018-05-17T22:12:50.179Z,12.50
2018-05-17T22:15:18.568Z,12.50
2018-05-17T22:17:46.957Z,12.40
2018-05-17T22:20:14.576Z,12.40
2018-05-17T22:22:42.192Z,12.40
2018-05-17T22:25:09.806Z,12.40
2018-05-17T22:27:37.412Z,12.30
2018-05-17T22:30:05.021Z,12.30
2018-05-17T22:32:32.639Z,12.30
2018-05-17T22:35:00.249Z,12.20
2018-05-17T22:37:27.874Z,12.20
2018-05-17T22:39:55.480Z,12.10
2018-05-17T22:42:23.124Z,12.10
2018-05-17T22:44:50.774Z,12.10
2018-05-17T22:47:18.376Z,12.00
2018-05-17T22:49:46.768Z,12.00
2018-05-17T22:52:14.424Z,12.00
2018-05-17T22:54:42.033Z,12.00
2018-05-17T22:57:12.598Z,11.90
2018-05-17T22:59:40.208Z,11.90
2018-05-17T23:02:07.842Z,11.90
2018-05-17T23:04:35.474Z,11.90
2018-05-17T23:07:03.102Z,11.90
2018-05-17T23:09:30.686Z,11.80
2018-05-17T23:11:58.338Z,11.90
2018-05-17T23:14:25.971Z,11.80
2018-05-17T23:16:53.608Z,11.80
2018-05-17T23:19:21.272Z,11.80
2018-05-17T23:21:49.694Z,11.80
2018-05-17T23:24:17.304Z,11.80
2018-05-17T23:26:45.672Z,11.80
2018-05-17T23:29:14.043Z,11.80
2018-05-17T23:31:41.644Z,11.80
2018-05-17T23:34:09.323Z,11.70
2018-05-17T23:36:36.948Z,11.70
2018-05-17T23:39:04.547Z,11.70
2018-05-17T23:41:36.674Z,11.70
2018-05-17T23:44:05.023Z,11.60
2018-05-17T23:46:32.628Z,11.50
2018-05-17T23:49:00.283Z,11.50
2018-05-17T23:51:27.921Z,11.50
2018-05-17T23:53:55.538Z,11.50
2018-05-17T23:56:23.172Z,11.50
2018-05-17T23:58:50.798Z,11.50
